»·PEaware :: UAL372 KPDX-KBZN

UAL372 :: KPDX-KBZN

FLIGHT INFORMATION

Flight Status: Arrived
Operator:
United Airlines
More flights by this operator :: More flights under this callsign
Pilot: Pratham R. (19019)
Aircraft: BOEING 737-800
(B738)
More flights by this aircraft type
Origin: KPDX Portland Intl
United States
Destination: KBZN Gallatin
United States
More flights between these airports :: More routes between these airports
Route: LAVAA6 PDT WEDAK THESE BZN
File this flight plan on PilotEdge
Remarks: RMK / SIMBRIEF
Altitude:
(Current/Filed)
35,000ft
Speed:
(Current/Filed)
457kts
Departed: 30-Mar-20 04:38 PM
Arrived: 30-Mar-20 05:49 PM
Distance/Time
Traveled:
479nm/1:11
Distance/Time
To Go:
Arrived

Flight Plot

Page will automatically refresh every two minutes.

Flight plan parsing failed; only flown route is shown


Map Options




Map Legend


Flown Route
Filed Route
Departure Airport
Arrival Airport
Navaid (VOR, NDB)
Fix

Horizontal Profiles

Position Reports

Time Latitude Longitude Heading Altitude Ground
Speed
30-Mar-20 15:53 45.589861 -122.590548 225 40ft 0kts
30-Mar-20 15:54 45.589861 -122.590548 225 40ft 0kts
30-Mar-20 15:55 45.589861 -122.590548 225 40ft 0kts
30-Mar-20 15:56 45.589861 -122.590548 225 40ft 0kts
30-Mar-20 15:57 45.589861 -122.590548 225 40ft 0kts
30-Mar-20 15:58 45.589861 -122.590548 225 40ft 0kts
30-Mar-20 15:59 45.589861 -122.590548 225 40ft 0kts
30-Mar-20 16:00 45.589861 -122.590548 225 40ft 0kts
30-Mar-20 16:01 45.589861 -122.590548 225 40ft 0kts
30-Mar-20 16:02 45.589861 -122.590548 225 40ft 0kts
30-Mar-20 16:03 45.589861 -122.590548 225 40ft 0kts
30-Mar-20 16:04 45.589861 -122.590548 225 40ft 0kts
30-Mar-20 16:05 45.589861 -122.590548 225 40ft 0kts
30-Mar-20 16:05 45.589861 -122.590548 225 40ft 0kts
30-Mar-20 16:06 45.589861 -122.590548 225 40ft 0kts
30-Mar-20 16:08 45.589861 -122.590548 225 40ft 0kts
30-Mar-20 16:08 45.589861 -122.590548 225 40ft 0kts
30-Mar-20 16:09 45.589861 -122.590548 225 40ft 0kts
30-Mar-20 16:10 45.589861 -122.590548 225 40ft 0kts
30-Mar-20 16:12 45.589861 -122.590548 225 40ft 0kts
30-Mar-20 16:12 45.589861 -122.590548 225 40ft 0kts
30-Mar-20 16:13 45.589861 -122.590548 225 40ft 0kts
30-Mar-20 16:14 45.589861 -122.590548 225 40ft 0kts
30-Mar-20 16:15 45.589861 -122.590548 225 40ft 0kts
30-Mar-20 16:16 45.589861 -122.590548 225 40ft 0kts
30-Mar-20 16:17 45.589861 -122.590548 225 40ft 0kts
30-Mar-20 16:18 45.589861 -122.590548 225 40ft 0kts
30-Mar-20 16:19 45.589861 -122.590548 225 40ft 0kts
30-Mar-20 16:20 45.589861 -122.590548 225 40ft 0kts
30-Mar-20 16:21 45.589861 -122.590548 225 40ft 0kts
30-Mar-20 16:22 45.589861 -122.590548 225 40ft 0kts
30-Mar-20 16:23 45.589861 -122.590548 225 40ft 0kts
30-Mar-20 16:24 45.590214 -122.590039 224 40ft 2kts
30-Mar-20 16:25 45.590264 -122.589363 304 40ft 1kts
30-Mar-20 16:26 45.590235 -122.589305 303 40ft 0kts
30-Mar-20 16:27 45.590235 -122.589305 303 40ft 0kts
30-Mar-20 16:28 45.590235 -122.589305 303 40ft 0kts
30-Mar-20 16:29 45.590235 -122.589305 303 40ft 0kts
30-Mar-20 16:30 45.590332 -122.589618 207 40ft 0kts
30-Mar-20 16:31 45.589572 -122.587705 106 40ft 7kts
30-Mar-20 16:32 45.588677 -122.583146 117 40ft 12kts
30-Mar-20 16:33 45.586629 -122.577882 119 40ft 20kts
30-Mar-20 16:34 45.583745 -122.570467 118 39ft 21kts
30-Mar-20 16:35 45.582735 -122.567457 73 40ft 0kts
30-Mar-20 16:36 45.584092 -122.568135 297 40ft 22kts
30-Mar-20 16:37 45.601009 -122.611783 292 1404ft 167kts
30-Mar-20 16:38 45.623231 -122.685303 294 3397ft 236kts
30-Mar-20 16:39 45.658747 -122.768260 308 6530ft 261kts
30-Mar-20 16:40 45.728629 -122.766897 40 7232ft 308kts
30-Mar-20 16:41 45.758045 -122.655041 92 10299ft 325kts
30-Mar-20 16:42 45.756053 -122.515804 93 12370ft 374kts
30-Mar-20 16:43 45.754283 -122.362247 93 14913ft 402kts
30-Mar-20 16:44 45.752367 -122.202571 94 15934ft 411kts
30-Mar-20 16:45 45.750113 -122.037524 94 18603ft 426kts
30-Mar-20 16:46 45.747659 -121.864654 94 20887ft 446kts
30-Mar-20 16:47 45.746125 -121.686420 93 22910ft 465kts
30-Mar-20 16:48 45.744982 -121.498386 92 24769ft 483kts
30-Mar-20 16:49 45.743669 -121.302917 93 26481ft 499kts
30-Mar-20 16:50 45.742159 -121.101421 93 27944ft 515kts
30-Mar-20 16:51 45.740127 -120.893777 93 29492ft 524kts
30-Mar-20 16:52 45.737666 -120.685025 93 31213ft 527kts
30-Mar-20 16:53 45.734821 -120.475394 93 32892ft 527kts
30-Mar-20 16:54 45.731614 -120.265491 94 34426ft 528kts
30-Mar-20 16:55 45.728097 -120.054160 94 34977ft 534kts
30-Mar-20 16:56 45.724092 -119.842247 95 35012ft 530kts
30-Mar-20 16:57 45.718403 -119.631820 95 35016ft 531kts
30-Mar-20 16:58 45.712144 -119.420849 95 35019ft 530kts
30-Mar-20 16:59 45.706159 -119.210468 95 35008ft 529kts
30-Mar-20 17:00 45.700127 -119.000112 95 35011ft 532kts
30-Mar-20 17:01 45.708081 -118.788522 86 35012ft 536kts
30-Mar-20 17:02 45.720119 -118.576116 86 35017ft 534kts
30-Mar-20 17:03 45.732129 -118.365131 85 35028ft 534kts
30-Mar-20 17:04 45.743909 -118.156994 86 35016ft 533kts
30-Mar-20 17:05 45.755423 -117.944636 86 35017ft 535kts
30-Mar-20 17:06 45.766355 -117.734789 87 35025ft 535kts
30-Mar-20 17:07 45.776994 -117.522529 86 35024ft 534kts
30-Mar-20 17:08 45.787218 -117.311278 87 34992ft 534kts
30-Mar-20 17:09 45.797135 -117.102308 87 34990ft 532kts
30-Mar-20 17:10 45.806639 -116.890519 86 34991ft 532kts
30-Mar-20 17:11 45.815645 -116.679706 86 34995ft 530kts
30-Mar-20 17:12 45.824271 -116.468466 86 35000ft 530kts
30-Mar-20 17:13 45.832500 -116.259876 87 34986ft 530kts
30-Mar-20 17:14 45.840515 -116.047970 87 34988ft 532kts
30-Mar-20 17:15 45.848026 -115.836480 87 34998ft 530kts
30-Mar-20 17:16 45.855082 -115.625734 86 35006ft 530kts
30-Mar-20 17:17 45.861742 -115.414420 87 35012ft 531kts
30-Mar-20 17:18 45.868175 -115.203519 87 34996ft 529kts
30-Mar-20 17:19 45.874181 -114.992161 86 34998ft 528kts
30-Mar-20 17:20 45.879644 -114.782663 86 34973ft 524kts
30-Mar-20 17:21 45.884706 -114.573297 86 34959ft 527kts
30-Mar-20 17:22 45.889392 -114.363410 86 34963ft 527kts
30-Mar-20 17:23 45.893916 -114.153726 86 34952ft 527kts
30-Mar-20 17:24 45.896463 -113.943884 88 34950ft 525kts
30-Mar-20 17:25 45.900997 -113.741341 86 34957ft 527kts
30-Mar-20 17:26 45.907453 -113.525435 85 34958ft 528kts
30-Mar-20 17:27 45.913852 -113.314956 86 34645ft 531kts
30-Mar-20 17:28 45.920314 -113.098998 88 30108ft 547kts
30-Mar-20 17:29 45.926225 -112.884625 89 25257ft 526kts
30-Mar-20 17:30 45.931400 -112.683869 90 20590ft 481kts
30-Mar-20 17:31 45.934937 -112.505121 91 17788ft 415kts
30-Mar-20 17:32 45.937339 -112.347748 92 15578ft 388kts
30-Mar-20 17:33 45.939842 -112.194900 92 13391ft 376kts
30-Mar-20 17:34 45.942210 -112.050525 92 11026ft 345kts
30-Mar-20 17:35 45.944318 -111.919440 91 9015ft 310kts
30-Mar-20 17:36 45.946204 -111.802214 91 7574ft 279kts
30-Mar-20 17:37 45.947866 -111.701479 92 6902ft 227kts
30-Mar-20 17:38 45.948597 -111.615297 93 6449ft 210kts
30-Mar-20 17:39 45.946606 -111.531908 108 6182ft 202kts
30-Mar-20 17:40 45.921570 -111.459533 126 6580ft 201kts
30-Mar-20 17:41 45.891782 -111.391589 127 6569ft 205kts
30-Mar-20 17:42 45.856533 -111.330943 141 6244ft 198kts
30-Mar-20 17:43 45.816005 -111.279990 143 5894ft 193kts
30-Mar-20 17:44 45.775186 -111.229600 144 5949ft 193kts
30-Mar-20 17:45 45.738350 -111.181987 141 5908ft 167kts
30-Mar-20 17:46 45.735103 -111.126073 33 5261ft 169kts
30-Mar-20 17:47 45.773257 -111.145909 311 4479ft 161kts
30-Mar-20 17:48 45.787575 -111.166041 287 4438ft 14kts
30-Mar-20 17:49 45.786194 -111.167997 143 4441ft 4kts
30-Mar-20 17:50 45.784470 -111.165629 136 4445ft 8kts
30-Mar-20 17:51 45.782878 -111.163423 136 4450ft 13kts
30-Mar-20 17:52 45.780226 -111.161375 145 4456ft 6kts
30-Mar-20 17:53 45.779437 -111.161152 227 4457ft 0kts
30-Mar-20 17:54 45.779422 -111.161176 227 4457ft 0kts
30-Mar-20 17:55 45.779422 -111.161176 227 4457ft 0kts
30-Mar-20 17:56 45.779422 -111.161176 227 4457ft 0kts
30-Mar-20 17:57 45.779422 -111.161176 227 4457ft 0kts
30-Mar-20 17:58 45.779422 -111.161176 227 4457ft 0kts
30-Mar-20 17:59 45.779422 -111.161176 227 4457ft 0kts
30-Mar-20 18:01 45.779422 -111.161176 227 4457ft 0kts
30-Mar-20 18:02 45.779422 -111.161176 227 4457ft 0kts

Navigation Log

Ident Type
Flight plan parsing failed, navigation log unavailable